createdAt,value
2018-11-25T00:00:25.169Z,60.34
2018-11-25T00:02:53.744Z,60.33
2018-11-25T00:05:22.360Z,60.06
2018-11-25T00:07:50.880Z,60.30
2018-11-25T00:10:19.424Z,60.15
2018-11-25T00:12:47.908Z,60.15
2018-11-25T00:15:16.360Z,60.14
2018-11-25T00:17:44.794Z,59.96
2018-11-25T00:20:13.979Z,60.37
2018-11-25T00:22:42.954Z,60.33
2018-11-25T00:25:13.017Z,60.66
2018-11-25T00:27:41.622Z,60.39
2018-11-25T00:30:12.692Z,60.53
2018-11-25T00:32:41.266Z,60.27
2018-11-25T00:35:11.551Z,60.29
2018-11-25T00:37:47.529Z,60.30
2018-11-25T00:40:14.053Z,60.53
2018-11-25T00:42:43.279Z,60.13
2018-11-25T00:45:14.769Z,59.91
2018-11-25T00:47:43.282Z,60.59
2018-11-25T00:50:13.071Z,60.18
2018-11-25T00:52:41.537Z,60.55
2018-11-25T00:55:11.739Z,60.23
2018-11-25T00:57:40.235Z,60.60
2018-11-25T01:00:19.285Z,60.16
2018-11-25T01:02:49.210Z,60.15
2018-11-25T01:05:17.720Z,60.61
2018-11-25T01:07:46.257Z,60.47
2018-11-25T01:10:15.968Z,60.30
2018-11-25T01:12:45.441Z,60.38
2018-11-25T01:15:16.259Z,60.47
2018-11-25T01:17:44.966Z,60.29
2018-11-25T01:20:21.254Z,60.11
2018-11-25T01:22:49.708Z,60.58
2018-11-25T01:25:18.213Z,60.29
2018-11-25T01:27:47.070Z,61.01
2018-11-25T01:30:17.440Z,60.42
2018-11-25T01:32:45.881Z,60.77
2018-11-25T01:35:14.432Z,60.21
2018-11-25T01:37:46.896Z,60.72
2018-11-25T01:40:17.536Z,60.45
2018-11-25T01:42:46.116Z,60.69
2018-11-25T01:45:16.888Z,60.57
2018-11-25T01:47:45.459Z,60.36
2018-11-25T01:50:16.361Z,60.75
2018-11-25T01:52:45.950Z,60.71
2018-11-25T01:55:16.831Z,60.80
2018-11-25T01:57:45.304Z,60.39
2018-11-25T02:00:18.346Z,60.78
2018-11-25T02:02:46.947Z,60.28
2018-11-25T02:05:15.862Z,60.56
2018-11-25T02:07:44.424Z,60.48
2018-11-25T02:10:15.511Z,60.24
2018-11-25T02:12:44.073Z,60.93
2018-11-25T02:15:13.884Z,60.69
2018-11-25T02:17:42.401Z,60.42
2018-11-25T02:20:19.325Z,60.85
2018-11-25T02:22:48.015Z,60.47
2018-11-25T02:25:16.562Z,60.41
2018-11-25T02:27:45.364Z,60.76
2018-11-25T02:30:17.015Z,60.18
2018-11-25T02:32:46.256Z,60.76
2018-11-25T02:35:15.976Z,60.07
2018-11-25T02:37:44.660Z,60.30
2018-11-25T02:40:19.007Z,60.36
2018-11-25T02:42:47.482Z,60.71
2018-11-25T02:45:19.242Z,60.93
2018-11-25T02:47:47.880Z,60.70
2018-11-25T02:50:27.064Z,60.63
2018-11-25T02:52:57.022Z,60.91
2018-11-25T02:55:26.817Z,60.73
2018-11-25T02:57:55.206Z,60.94
2018-11-25T03:00:23.678Z,60.31
2018-11-25T03:02:52.570Z,60.41
2018-11-25T03:05:21.110Z,60.64
2018-11-25T03:07:49.574Z,60.98
2018-11-25T03:10:18.055Z,60.87
2018-11-25T03:12:46.492Z,60.54
2018-11-25T03:15:16.976Z,61.06
2018-11-25T03:17:45.611Z,60.49
2018-11-25T03:20:15.270Z,60.94
2018-11-25T03:22:47.701Z,60.99
2018-11-25T03:25:19.354Z,60.33
2018-11-25T03:27:47.881Z,60.86
2018-11-25T03:30:17.664Z,60.93
2018-11-25T03:32:47.531Z,60.49
2018-11-25T03:35:16.002Z,60.48
2018-11-25T03:37:44.457Z,60.65
2018-11-25T03:40:14.472Z,60.55
2018-11-25T03:42:42.941Z,60.90
2018-11-25T03:45:13.926Z,60.70
2018-11-25T03:47:42.426Z,61.07
2018-11-25T03:50:12.262Z,60.62
2018-11-25T03:52:40.802Z,61.03
2018-11-25T03:55:11.562Z,60.56
2018-11-25T03:57:40.127Z,60.53
2018-11-25T04:00:18.052Z,60.77
2018-11-25T04:02:46.588Z,61.08
2018-11-25T04:05:18.255Z,60.61
2018-11-25T04:07:46.739Z,60.68
2018-11-25T04:10:17.138Z,60.87
2018-11-25T04:12:45.659Z,60.62
2018-11-25T04:15:16.431Z,61.03
2018-11-25T04:17:45.468Z,61.24
2018-11-25T04:20:18.273Z,61.06
2018-11-25T04:22:46.964Z,60.82
2018-11-25T04:25:15.455Z,61.08
2018-11-25T04:27:43.931Z,61.15
2018-11-25T04:30:14.726Z,61.02
2018-11-25T04:32:44.292Z,61.14
2018-11-25T04:35:13.164Z,60.69
2018-11-25T04:37:41.793Z,61.12
2018-11-25T04:40:11.842Z,61.23
2018-11-25T04:42:40.274Z,61.41
2018-11-25T04:45:12.117Z,61.41
2018-11-25T04:47:40.654Z,60.91
2018-11-25T04:50:15.992Z,60.85
2018-11-25T04:52:44.865Z,61.39
2018-11-25T04:55:13.700Z,61.70
2018-11-25T04:57:45.969Z,61.37
2018-11-25T05:00:14.822Z,60.90
2018-11-25T05:02:43.303Z,61.34
2018-11-25T05:05:13.307Z,61.60
2018-11-25T05:07:41.750Z,60.95
2018-11-25T05:10:13.594Z,61.50
2018-11-25T05:12:45.970Z,60.96
2018-11-25T05:15:19.875Z,61.04
2018-11-25T05:17:48.518Z,60.94
2018-11-25T05:20:18.072Z,61.01
2018-11-25T05:22:46.533Z,61.02
2018-11-25T05:25:18.821Z,60.78
2018-11-25T05:27:47.358Z,61.31
2018-11-25T05:30:18.164Z,61.14
2018-11-25T05:32:46.718Z,61.52
2018-11-25T05:35:16.637Z,61.45
2018-11-25T05:37:45.112Z,61.07
2018-11-25T05:40:15.339Z,61.62
2018-11-25T05:42:43.882Z,61.35
2018-11-25T05:45:16.709Z,60.87
2018-11-25T05:47:45.187Z,61.56
2018-11-25T05:50:18.811Z,61.50
2018-11-25T05:52:47.307Z,61.37
2018-11-25T05:55:16.056Z,61.60
2018-11-25T05:57:44.561Z,61.56
2018-11-25T06:00:21.967Z,61.13
2018-11-25T06:02:51.069Z,61.51
2018-11-25T06:05:19.642Z,61.47
2018-11-25T06:07:48.072Z,61.61
2018-11-25T06:10:16.737Z,61.34
2018-11-25T06:12:45.169Z,61.03
2018-11-25T06:15:14.617Z,61.03
2018-11-25T06:17:43.200Z,61.12
2018-11-25T06:20:17.564Z,61.88
2018-11-25T06:22:46.476Z,61.48
2018-11-25T06:25:18.172Z,61.59
2018-11-25T06:27:46.672Z,61.65
2018-11-25T06:30:16.613Z,61.09
2018-11-25T06:32:45.003Z,60.97
2018-11-25T06:35:18.130Z,61.40
2018-11-25T06:37:46.600Z,61.51
2018-11-25T06:40:16.644Z,61.15
2018-11-25T06:42:45.147Z,61.25
2018-11-25T06:45:25.429Z,61.36
2018-11-25T06:47:55.703Z,61.32
2018-11-25T06:50:24.199Z,61.25
2018-11-25T06:52:52.745Z,61.22
2018-11-25T06:55:21.224Z,61.59
2018-11-25T06:57:49.672Z,61.58
2018-11-25T07:00:22.600Z,61.76
2018-11-25T07:02:51.151Z,61.68
2018-11-25T07:05:19.613Z,61.26
2018-11-25T07:07:48.069Z,61.64
2018-11-25T07:10:22.474Z,61.67
2018-11-25T07:12:54.678Z,61.88
2018-11-25T07:15:23.182Z,61.75
2018-11-25T07:17:51.696Z,61.41
2018-11-25T07:20:20.308Z,61.37
2018-11-25T07:22:48.730Z,61.37
2018-11-25T07:25:18.852Z,61.73
2018-11-25T07:27:47.470Z,60.94
2018-11-25T07:30:20.204Z,61.55
2018-11-25T07:32:49.010Z,61.27
2018-11-25T07:35:25.009Z,61.55
2018-11-25T07:37:54.052Z,60.73
2018-11-25T07:40:23.859Z,61.07
2018-11-25T07:42:53.292Z,60.21
2018-11-25T07:45:30.280Z,60.44
2018-11-25T07:47:53.153Z,60.55
2018-11-25T07:50:21.696Z,60.12
2018-11-25T07:52:50.899Z,60.41
2018-11-25T07:55:26.204Z,60.10
2018-11-25T07:57:57.138Z,59.77
2018-11-25T08:00:26.211Z,59.51
2018-11-25T08:02:54.706Z,59.35
2018-11-25T08:05:25.612Z,59.19
2018-11-25T08:07:54.034Z,58.62
2018-11-25T08:10:22.884Z,58.20
2018-11-25T08:12:51.321Z,58.08
2018-11-25T08:15:20.291Z,57.45
2018-11-25T08:17:48.798Z,56.98
2018-11-25T08:20:19.356Z,56.78
2018-11-25T08:22:47.888Z,56.67
2018-11-25T08:25:18.801Z,56.25
2018-11-25T08:27:47.317Z,55.89
2018-11-25T08:30:20.015Z,55.96
2018-11-25T08:32:49.317Z,55.33
2018-11-25T08:35:18.244Z,55.44
2018-11-25T08:37:46.752Z,54.58
2018-11-25T08:40:17.873Z,54.87
2018-11-25T08:42:47.105Z,54.19
2018-11-25T08:45:16.197Z,54.28
2018-11-25T08:47:44.669Z,54.32
2018-11-25T08:50:14.496Z,54.48
2018-11-25T08:52:44.478Z,54.30
2018-11-25T08:55:14.704Z,54.51
2018-11-25T08:57:43.362Z,54.44
2018-11-25T09:00:21.263Z,53.82
2018-11-25T09:02:50.798Z,53.90
2018-11-25T09:05:19.468Z,53.56
2018-11-25T09:07:47.957Z,53.00
2018-11-25T09:10:21.698Z,52.57
2018-11-25T09:12:55.727Z,52.60
2018-11-25T09:15:23.308Z,52.26
2018-11-25T09:17:52.113Z,51.69
2018-11-25T09:20:21.694Z,51.70
2018-11-25T09:22:51.151Z,51.16
2018-11-25T09:25:27.269Z,50.89
2018-11-25T09:27:56.942Z,50.37
2018-11-25T09:30:27.735Z,50.19
2018-11-25T09:32:56.468Z,49.90
2018-11-25T09:35:25.329Z,50.48
2018-11-25T09:38:12.122Z,49.91
2018-11-25T09:40:50.193Z,49.26
2018-11-25T09:43:29.845Z,49.50
2018-11-25T09:46:02.946Z,48.97
2018-11-25T09:48:33.286Z,49.09
2018-11-25T09:51:05.499Z,48.68
2018-11-25T09:53:40.593Z,49.50
2018-11-25T09:56:17.223Z,48.89
2018-11-25T09:58:47.135Z,48.87
2018-11-25T10:01:16.730Z,48.61
2018-11-25T10:03:45.376Z,48.50
2018-11-25T10:06:13.632Z,49.05
2018-11-25T10:08:42.038Z,48.71
2018-11-25T10:11:13.721Z,49.12
2018-11-25T10:20:17.173Z,48.57
2018-11-25T10:22:48.652Z,48.05
2018-11-25T10:25:19.357Z,47.94
2018-11-25T10:27:47.988Z,46.85
2018-11-25T10:30:23.307Z,46.46
2018-11-25T10:32:55.099Z,46.59
2018-11-25T10:35:33.655Z,46.76
2018-11-25T10:38:09.606Z,46.11
2018-11-25T10:40:39.552Z,46.54
2018-11-25T10:43:08.081Z,45.41
2018-11-25T10:45:36.207Z,45.24
2018-11-25T10:48:05.711Z,44.99
2018-11-25T10:50:34.592Z,44.69
2018-11-25T10:55:34.176Z,44.96
2018-11-25T10:58:05.581Z,44.72
2018-11-25T11:00:55.706Z,44.69
2018-11-25T11:04:01.043Z,44.02
2018-11-25T11:06:49.998Z,44.06
2018-11-25T11:09:20.708Z,44.35
2018-11-25T11:11:55.046Z,43.45
2018-11-25T11:14:29.654Z,43.18
2018-11-25T11:17:12.389Z,42.76
2018-11-25T11:19:45.152Z,43.63
2018-11-25T11:22:22.702Z,43.28
2018-11-25T11:24:55.589Z,43.40
2018-11-25T11:27:39.297Z,42.84
2018-11-25T11:30:17.443Z,42.83
2018-11-25T11:33:02.375Z,42.24
2018-11-25T11:35:33.232Z,42.98
2018-11-25T11:40:58.875Z,41.85
2018-11-25T11:43:27.196Z,41.77
2018-11-25T11:45:55.649Z,41.72
2018-11-25T11:48:24.045Z,42.25
2018-11-25T11:50:52.480Z,41.92
2018-11-25T11:53:20.868Z,42.10
2018-11-25T11:55:49.244Z,41.02
2018-11-25T11:58:17.723Z,40.87
2018-11-25T12:00:46.169Z,41.17
2018-11-25T12:03:14.620Z,40.40
2018-11-25T12:05:43.075Z,40.89
2018-11-25T12:08:11.773Z,40.55
2018-11-25T12:10:40.254Z,40.75
2018-11-25T12:13:08.681Z,40.12
2018-11-25T12:15:37.090Z,40.67
2018-11-25T12:18:06.853Z,40.33
2018-11-25T12:20:35.529Z,40.67
2018-11-25T12:23:04.349Z,40.73
2018-11-25T12:25:33.074Z,41.22
2018-11-25T12:28:01.551Z,41.20
2018-11-25T12:30:29.947Z,41.04
2018-11-25T12:32:58.377Z,41.33
2018-11-25T12:35:26.793Z,41.46
2018-11-25T12:37:55.211Z,40.66
2018-11-25T12:40:23.734Z,41.16
2018-11-25T12:42:58.710Z,41.02
2018-11-25T12:45:27.215Z,41.70
2018-11-25T12:47:55.605Z,41.98
2018-11-25T12:50:25.608Z,42.12
2018-11-25T12:52:54.612Z,42.49
2018-11-25T12:55:24.945Z,42.40
2018-11-25T12:57:54.102Z,43.18
2018-11-25T13:00:32.089Z,43.23
2018-11-25T13:03:00.997Z,43.11
2018-11-25T13:05:36.595Z,42.26
2018-11-25T13:08:06.200Z,42.83
2018-11-25T13:10:34.573Z,41.75
2018-11-25T13:13:03.066Z,41.43
2018-11-25T13:15:31.514Z,41.75
2018-11-25T13:17:59.933Z,41.96
2018-11-25T13:20:28.403Z,41.37
2018-11-25T13:22:56.835Z,41.20
2018-11-25T13:25:25.421Z,42.13
2018-11-25T13:27:53.857Z,41.44
2018-11-25T13:30:24.134Z,41.06
2018-11-25T13:32:54.304Z,41.95
2018-11-25T13:35:23.292Z,41.26
2018-11-25T13:37:51.890Z,42.12
2018-11-25T13:40:20.284Z,41.88
2018-11-25T13:42:48.663Z,42.65
2018-11-25T13:45:17.065Z,42.14
2018-11-25T13:47:45.532Z,42.99
2018-11-25T13:50:13.988Z,43.27
2018-11-25T13:52:42.468Z,43.62
2018-11-25T13:55:13.978Z,42.75
2018-11-25T13:57:42.424Z,43.16
2018-11-25T14:00:18.100Z,43.28
2018-11-25T14:02:46.505Z,44.18
2018-11-25T14:05:15.377Z,44.36
2018-11-25T14:07:43.761Z,44.16
2018-11-25T14:10:17.643Z,44.67
2018-11-25T14:12:46.082Z,45.06
2018-11-25T14:15:14.508Z,45.42
2018-11-25T14:17:43.039Z,45.66
2018-11-25T14:20:11.457Z,46.00
2018-11-25T14:22:39.865Z,45.68
2018-11-25T14:25:12.079Z,45.58
2018-11-25T14:27:40.689Z,45.78
2018-11-25T14:30:20.083Z,46.48
2018-11-25T14:32:48.602Z,46.92
2018-11-25T14:35:17.602Z,46.76
2018-11-25T14:37:46.069Z,46.76
2018-11-25T14:40:19.018Z,47.47
2018-11-25T14:42:47.793Z,47.08
2018-11-25T14:45:17.511Z,47.27
2018-11-25T14:47:45.960Z,47.13
2018-11-25T14:50:17.286Z,47.27
2018-11-25T14:52:47.906Z,48.20
2018-11-25T14:55:16.983Z,48.01
2018-11-25T14:57:45.400Z,47.65
2018-11-25T15:00:16.804Z,47.79
2018-11-25T15:02:47.572Z,47.92
2018-11-25T15:05:30.481Z,48.47
2018-11-25T15:07:59.101Z,48.45
2018-11-25T15:10:27.538Z,48.45
2018-11-25T15:12:55.923Z,48.93
2018-11-25T15:15:24.395Z,48.71
2018-11-25T15:17:52.756Z,48.76
2018-11-25T15:20:21.123Z,48.73
2018-11-25T15:22:52.421Z,49.28
2018-11-25T15:25:31.170Z,48.82
2018-11-25T15:27:59.725Z,49.39
2018-11-25T15:30:28.191Z,49.50
2018-11-25T15:32:56.591Z,49.06
2018-11-25T15:35:25.021Z,49.17
2018-11-25T15:37:54.578Z,49.99
2018-11-25T15:40:29.497Z,49.79
2018-11-25T15:42:58.024Z,49.43
2018-11-25T15:45:26.462Z,49.67
2018-11-25T15:48:07.931Z,50.07
2018-11-25T15:50:36.380Z,49.86
2018-11-25T15:53:05.897Z,50.24
2018-11-25T15:55:34.323Z,50.11
2018-11-25T15:58:02.809Z,50.31
2018-11-25T16:00:31.249Z,50.70
2018-11-25T16:02:59.802Z,50.76
2018-11-25T16:05:31.444Z,50.35
2018-11-25T16:08:00.448Z,50.56
2018-11-25T16:10:29.243Z,50.85
2018-11-25T16:12:57.681Z,50.73
2018-11-25T16:15:27.530Z,50.30
2018-11-25T16:17:56.279Z,50.61
2018-11-25T16:20:27.309Z,50.90
2018-11-25T16:22:58.852Z,50.86
2018-11-25T16:25:38.283Z,51.09
2018-11-25T16:28:15.329Z,51.43
2018-11-25T16:30:43.834Z,51.33
2018-11-25T16:33:12.324Z,51.93
2018-11-25T16:35:40.959Z,51.59
2018-11-25T16:38:09.542Z,51.72
2018-11-25T16:40:38.021Z,51.76
2018-11-25T16:43:06.726Z,51.99
2018-11-25T16:45:35.200Z,51.88
2018-11-25T16:48:03.698Z,52.05
2018-11-25T16:50:32.481Z,52.12
2018-11-25T16:53:00.905Z,52.26
2018-11-25T16:55:29.313Z,52.32
2018-11-25T16:57:57.800Z,52.43
2018-11-25T17:00:30.298Z,52.85
2018-11-25T17:02:58.727Z,52.74
2018-11-25T17:05:32.238Z,52.81
2018-11-25T17:08:11.930Z,52.80
2018-11-25T17:10:40.441Z,52.98
2018-11-25T17:13:08.847Z,53.24
2018-11-25T17:15:37.292Z,53.05
2018-11-25T17:18:06.136Z,53.05
2018-11-25T17:20:34.579Z,53.33
2018-11-25T17:23:03.023Z,52.77
2018-11-25T17:25:31.509Z,53.51
2018-11-25T17:28:01.648Z,53.24
2018-11-25T17:30:30.279Z,53.37
2018-11-25T17:32:58.661Z,53.49
2018-11-25T17:35:29.381Z,53.73
2018-11-25T17:37:57.845Z,53.14
2018-11-25T17:40:26.384Z,53.74
2018-11-25T17:42:55.046Z,53.97
2018-11-25T17:45:23.573Z,53.73
2018-11-25T17:47:52.564Z,53.67
2018-11-25T17:50:29.345Z,53.79
2018-11-25T17:52:58.038Z,53.78
2018-11-25T17:55:28.290Z,53.89
2018-11-25T17:57:57.279Z,53.81
2018-11-25T18:00:50.522Z,54.22
2018-11-25T18:03:24.898Z,54.27
2018-11-25T18:05:54.208Z,53.76
2018-11-25T18:08:22.815Z,53.87
2018-11-25T18:10:51.554Z,53.96
2018-11-25T18:13:22.370Z,54.36
2018-11-25T18:15:52.338Z,54.13
2018-11-25T18:18:34.536Z,54.35
2018-11-25T18:21:08.210Z,54.42
2018-11-25T18:23:37.149Z,54.61
2018-11-25T18:26:06.323Z,54.33
2018-11-25T18:28:34.770Z,54.29
2018-11-25T18:31:03.271Z,54.34
2018-11-25T18:33:32.596Z,54.84
2018-11-25T18:36:01.488Z,54.47
2018-11-25T18:38:29.938Z,54.67
2018-11-25T18:40:58.362Z,54.42
2018-11-25T18:43:26.934Z,54.71
2018-11-25T18:45:59.386Z,54.70
2018-11-25T18:48:25.888Z,54.83
2018-11-25T18:50:54.398Z,54.64
2018-11-25T18:53:23.045Z,54.95
2018-11-25T18:55:50.298Z,55.00
2018-11-25T18:58:18.931Z,55.10
2018-11-25T19:01:15.127Z,55.01
2018-11-25T19:03:43.568Z,55.24
2018-11-25T19:06:12.108Z,55.00
2018-11-25T19:08:41.473Z,55.32
2018-11-25T19:11:10.273Z,54.98
2018-11-25T19:13:39.292Z,55.28
2018-11-25T19:16:08.372Z,55.17
2018-11-25T19:18:37.553Z,55.14
2018-11-25T19:21:06.111Z,54.88
2018-11-25T19:23:34.974Z,55.31
2018-11-25T19:26:03.730Z,55.34
2018-11-25T19:28:32.235Z,55.45
2018-11-25T19:31:01.363Z,55.39
2018-11-25T19:33:29.870Z,55.59
2018-11-25T19:35:58.490Z,55.66
2018-11-25T19:38:27.616Z,55.75
2018-11-25T19:40:56.239Z,55.61
2018-11-25T19:43:25.001Z,55.58
2018-11-25T19:45:53.510Z,55.63
2018-11-25T19:48:21.997Z,55.82
2018-11-25T19:50:50.511Z,55.60
2018-11-25T19:53:19.384Z,55.88
2018-11-25T19:55:49.187Z,55.67
2018-11-25T19:58:17.703Z,55.88
2018-11-25T20:00:46.750Z,56.01
2018-11-25T20:03:15.554Z,55.85
2018-11-25T20:05:44.418Z,55.92
2018-11-25T20:08:13.057Z,56.05
2018-11-25T20:10:41.651Z,56.09
2018-11-25T20:13:11.846Z,55.83
2018-11-25T20:15:39.439Z,56.25
2018-11-25T20:18:09.833Z,56.02
2018-11-25T20:20:38.601Z,55.95
2018-11-25T20:23:10.622Z,56.24
2018-11-25T20:25:40.859Z,56.02
2018-11-25T20:28:10.111Z,56.29
2018-11-25T20:30:38.769Z,56.27
2018-11-25T20:33:13.230Z,56.36
2018-11-25T20:35:41.805Z,56.41
2018-11-25T20:38:15.873Z,56.60
2018-11-25T20:40:45.182Z,56.48
2018-11-25T20:43:13.665Z,56.30
2018-11-25T20:45:47.867Z,56.43
2018-11-25T20:48:16.437Z,56.26
2018-11-25T20:50:45.131Z,56.37
2018-11-25T20:53:20.686Z,56.62
2018-11-25T20:55:47.867Z,56.28
2018-11-25T20:58:16.300Z,56.55
2018-11-25T21:00:44.792Z,56.75
2018-11-25T21:03:13.579Z,56.70
2018-11-25T21:05:42.165Z,56.49
2018-11-25T21:08:10.578Z,56.51
2018-11-25T21:10:39.030Z,56.44
2018-11-25T21:13:08.277Z,56.62
2018-11-25T21:15:37.240Z,56.76
2018-11-25T21:18:06.387Z,56.81
2018-11-25T21:20:34.757Z,56.57
2018-11-25T21:23:03.858Z,56.82
2018-11-25T21:25:36.873Z,56.87
2018-11-25T21:28:05.784Z,56.62
2018-11-25T21:30:34.739Z,56.81
2018-11-25T21:33:05.197Z,57.06
2018-11-25T21:35:33.664Z,56.72
2018-11-25T21:38:02.086Z,57.21
2018-11-25T21:40:30.552Z,56.80
2018-11-25T21:42:58.976Z,57.11
2018-11-25T21:45:27.435Z,56.93
2018-11-25T21:47:55.964Z,56.63
2018-11-25T21:50:26.416Z,57.02
2018-11-25T21:52:54.994Z,56.68
2018-11-25T21:55:24.154Z,57.22
2018-11-25T21:57:52.607Z,57.12
2018-11-25T22:00:22.425Z,57.02
2018-11-25T22:02:51.037Z,57.21
2018-11-25T22:05:20.111Z,57.18
2018-11-25T22:07:48.372Z,56.81
2018-11-25T22:10:18.975Z,57.02
2018-11-25T22:12:47.793Z,56.86
2018-11-25T22:15:17.914Z,57.11
2018-11-25T22:17:46.775Z,56.97
2018-11-25T22:20:15.996Z,57.26
2018-11-25T22:22:44.491Z,57.04
2018-11-25T22:25:15.143Z,57.09
2018-11-25T22:27:43.695Z,57.10
2018-11-25T22:30:21.878Z,56.95
2018-11-25T22:32:50.706Z,56.89
2018-11-25T22:35:21.117Z,57.09
2018-11-25T22:37:49.557Z,56.84
2018-11-25T22:40:18.709Z,57.08
2018-11-25T22:42:49.497Z,56.87
2018-11-25T22:45:20.768Z,56.78
2018-11-25T22:47:49.967Z,57.14
2018-11-25T22:50:21.440Z,57.04
2018-11-25T22:52:50.118Z,56.93
2018-11-25T22:55:22.740Z,57.36
2018-11-25T22:57:51.289Z,57.25
2018-11-25T23:00:26.517Z,57.02
2018-11-25T23:02:55.147Z,57.40
2018-11-25T23:05:40.473Z,57.42
2018-11-25T23:08:10.013Z,57.34
2018-11-25T23:10:38.469Z,57.38
2018-11-25T23:13:06.980Z,57.19
2018-11-25T23:15:35.485Z,57.30
2018-11-25T23:18:04.099Z,57.28
2018-11-25T23:20:32.555Z,57.04
2018-11-25T23:23:01.071Z,57.12
2018-11-25T23:25:29.570Z,57.33
2018-11-25T23:27:58.003Z,57.29
2018-11-25T23:30:26.478Z,57.47
2018-11-25T23:32:54.904Z,57.69
2018-11-25T23:35:27.148Z,57.70
2018-11-25T23:37:55.629Z,57.51
2018-11-25T23:40:24.246Z,57.32
2018-11-25T23:42:52.715Z,57.41
2018-11-25T23:45:21.197Z,57.46
2018-11-25T23:47:49.653Z,58.16
2018-11-25T23:50:18.138Z,57.86
2018-11-25T23:52:48.020Z,57.81
2018-11-25T23:55:16.492Z,57.35
2018-11-25T23:57:44.947Z,57.62
